Time;durP1;ratioP1;P1;durP2;ratioP2;P2;SDS_P1;SDS_P2;PMS_P1;PMS_P2;Temp;Humidity;BMP_temperature;BMP_pressure;BME280_temperature;BME280_humidity;BME280_pressure;Samples;Min_cycle;Max_cycle;Signal;HPM_P1;HPM_P2
2022/07/21 00:00:25;;;;;;;5.58;2.17;;;;;;;15.64;58.18;99406.98;1726678;82;21049;-43
2022/07/21 00:02:52;;;;;;;4.08;1.95;;;;;;;15.60;58.10;99403.48;1726954;83;21755;-43
2022/07/21 00:05:19;;;;;;;3.17;1.80;;;;;;;15.55;58.35;99401.92;1726689;82;21542;-43
2022/07/21 00:07:46;;;;;;;4.78;1.87;;;;;;;15.48;58.13;99413.42;1726679;82;21027;-43
2022/07/21 00:10:14;;;;;;;4.62;2.02;;;;;;;15.41;58.35;99409.31;1726774;83;21616;-44
2022/07/21 00:12:41;;;;;;;5.17;2.00;;;;;;;15.37;58.54;99409.90;1726497;82;21018;-43
2022/07/21 00:15:10;;;;;;;3.40;1.90;;;;;;;15.33;58.47;99407.76;1726657;83;21230;-43
2022/07/21 00:17:38;;;;;;;;;;;;;;;15.30;58.67;99409.30;1729174;82;20980;-44
2022/07/21 00:20:08;;;;;;;4.33;2.20;;;;;;;15.27;58.71;99407.94;1726755;83;20146;-44
2022/07/21 00:22:35;;;;;;;3.20;1.95;;;;;;;15.11;58.98;99414.55;1726693;83;22019;-44
2022/07/21 00:25:04;;;;;;;3.75;1.90;;;;;;;15.07;59.08;99408.31;1726616;83;21044;-44
2022/07/21 00:27:31;;;;;;;3.87;1.97;;;;;;;15.08;59.06;99414.55;1726790;83;21234;-43
2022/07/21 00:29:59;;;;;;;4.00;2.37;;;;;;;15.05;59.03;99414.77;1726465;83;21016;-44
2022/07/21 00:32:27;;;;;;;4.35;1.98;;;;;;;14.98;59.23;99412.01;1726684;83;20961;-43
2022/07/21 00:34:55;;;;;;;3.60;2.10;;;;;;;14.96;59.45;99413.58;1726528;82;21057;-43
2022/07/21 00:37:23;;;;;;;5.08;2.00;;;;;;;14.94;59.74;99417.27;1726661;82;21685;-43
2022/07/21 00:39:51;;;;;;;3.13;1.67;;;;;;;14.92;59.81;99417.64;1726880;82;21230;-43
2022/07/21 00:42:27;;;;;;;3.35;2.02;;;;;;;14.90;59.96;99415.90;1726566;83;21041;-43
2022/07/21 00:44:55;;;;;;;4.87;2.17;;;;;;;14.87;60.05;99415.29;1726613;83;21008;-43
2022/07/21 00:47:24;;;;;;;3.08;2.00;;;;;;;14.84;60.06;99414.70;1726549;82;20930;-43
2022/07/21 00:49:52;;;;;;;4.35;2.20;;;;;;;14.80;60.15;99412.55;1726641;82;21624;-43
2022/07/21 00:52:19;;;;;;;4.33;2.08;;;;;;;14.79;60.23;99407.68;1726522;82;21140;-44
2022/07/21 00:54:47;;;;;;;6.12;2.20;;;;;;;14.78;60.21;99416.24;1726396;83;21028;-44
2022/07/21 00:57:14;;;;;;;3.30;1.98;;;;;;;14.74;60.31;99407.27;1723276;83;20969;-44
2022/07/21 00:59:43;;;;;;;4.05;2.20;;;;;;;14.70;60.38;99408.63;1716727;83;21634;-44
2022/07/21 01:02:10;;;;;;;6.15;1.82;;;;;;;14.69;60.67;99410.38;1721484;83;21072;-43
2022/07/21 01:04:37;;;;;;;2.98;2.10;;;;;;;14.69;60.72;99411.73;1721372;83;21249;-44
2022/07/21 01:07:05;;;;;;;7.72;2.47;;;;;;;14.67;60.92;99409.97;1716134;83;21084;-43
2022/07/21 01:10:23;;;;;;;3.12;1.98;;;;;;;14.67;61.02;99409.97;1809644;79;22629;-43
2022/07/21 01:12:51;;;;;;;4.27;2.10;;;;;;;14.63;61.13;99405.08;1788683;80;21019;-43
2022/07/21 01:15:19;;;;;;;5.30;2.15;;;;;;;14.63;61.21;99404.50;1788468;80;21801;-43
2022/07/21 01:17:48;;;;;;;4.22;2.10;;;;;;;14.67;61.31;99405.87;1751835;80;20964;-44
2022/07/21 01:20:19;;;;;;;3.35;1.95;;;;;;;14.70;61.25;99403.75;1748979;82;20933;-43
2022/07/21 01:22:47;;;;;;;;;;;;;;;14.70;61.20;99399.66;1751785;81;21012;-43
2022/07/21 01:25:15;;;;;;;4.75;1.95;;;;;;;14.70;61.16;99396.94;1748953;82;20211;-43
2022/07/21 01:27:42;;;;;;;3.58;2.00;;;;;;;14.61;61.46;99395.94;1748958;82;21238;-44
2022/07/21 01:30:11;;;;;;;3.72;2.00;;;;;;;14.64;61.38;99399.83;1748970;82;21481;-44
2022/07/21 01:32:39;;;;;;;4.90;2.45;;;;;;;14.65;61.36;99394.58;1749252;82;21519;-43
2022/07/21 01:35:10;;;;;;;3.25;2.00;;;;;;;14.67;61.31;99396.32;1749001;81;21016;-44
2022/07/21 01:37:42;;;;;;;5.60;2.33;;;;;;;14.68;61.17;99393.80;1749136;82;21568;-43
2022/07/21 01:42:56;;;;;;;3.87;2.30;;;;;;;14.62;61.14;99399.45;1749105;82;21765;-44
2022/07/21 01:45:23;;;;;;;4.90;2.00;;;;;;;14.56;61.43;99404.50;1748932;82;20937;-43
2022/07/21 01:47:51;;;;;;;4.28;2.10;;;;;;;14.52;61.47;99396.10;1749094;82;21488;-44
2022/07/21 01:50:21;;;;;;;4.72;2.00;;;;;;;14.52;61.64;99393.38;1748812;82;20962;-43
2022/07/21 01:52:48;;;;;;;3.00;1.98;;;;;;;14.57;61.72;99399.83;1748919;82;21878;-43
2022/07/21 01:55:15;;;;;;;3.77;1.80;;;;;;;14.59;61.69;99400.98;1748939;82;20933;-43
2022/07/21 01:57:42;;;;;;;4.58;2.20;;;;;;;14.59;61.55;99400.20;1748798;82;21550;-43
2022/07/21 02:00:11;;;;;;;6.60;2.05;;;;;;;14.55;61.48;99401.56;1748972;82;20997;-44
2022/07/21 02:02:38;;;;;;;2.92;1.60;;;;;;;14.49;61.46;99394.13;1748937;82;21051;-44
2022/07/21 02:05:08;;;;;;;4.28;2.02;;;;;;;14.41;61.60;99392.55;1748931;82;21221;-44
2022/07/21 02:07:35;;;;;;;3.47;1.87;;;;;;;14.35;61.87;99383.34;1749455;82;20918;-44
2022/07/21 02:10:05;;;;;;;3.45;1.90;;;;;;;14.33;61.89;99387.02;1738675;81;20992;-43
2022/07/21 02:12:32;;;;;;;2.47;1.60;;;;;;;14.30;62.08;99385.07;1735652;82;21009;-43
2022/07/21 02:14:59;;;;;;;5.10;1.60;;;;;;;14.29;62.40;99383.50;1735816;82;21053;-43
2022/07/21 02:17:26;;;;;;;4.45;1.90;;;;;;;14.33;62.46;99384.87;1735591;82;21238;-43
2022/07/21 02:19:53;;;;;;;3.20;1.90;;;;;;;14.37;62.44;99382.20;1735528;82;21480;-43
2022/07/21 02:22:20;;;;;;;3.95;1.85;;;;;;;14.43;62.48;99373.25;1735075;82;20934;-43
2022/07/21 02:24:48;;;;;;;5.33;1.92;;;;;;;14.47;62.31;99382.83;1735271;82;21021;-44
2022/07/21 02:27:16;;;;;;;3.05;2.10;;;;;;;14.50;62.18;99382.84;1735131;82;21006;-44
2022/07/21 02:29:44;;;;;;;2.70;1.57;;;;;;;14.54;62.09;99378.17;1735157;82;22037;-43
2022/07/21 02:32:11;;;;;;;3.75;1.70;;;;;;;14.56;61.96;99373.12;1735100;82;20938;-43
2022/07/21 02:34:38;;;;;;;3.02;2.00;;;;;;;14.56;61.96;99369.03;1735061;82;21023;-43
2022/07/21 02:37:06;;;;;;;2.75;1.80;;;;;;;14.50;61.80;99370.56;1735128;82;20891;-43
2022/07/21 02:39:33;;;;;;;3.35;1.50;;;;;;;14.45;61.97;99372.88;1735060;82;21049;-43
2022/07/21 02:42:00;;;;;;;3.75;1.80;;;;;;;14.41;62.06;99373.45;1735128;82;21143;-43
2022/07/21 02:44:29;;;;;;;3.20;2.12;;;;;;;14.38;62.15;99376.95;1735047;82;20966;-43
2022/07/21 02:46:57;;;;;;;2.95;1.50;;;;;;;14.33;62.27;99372.59;1735129;82;20931;-43
2022/07/21 02:49:24;;;;;;;3.00;1.60;;;;;;;14.30;62.45;99371.44;1735235;82;21527;-43
2022/07/21 02:51:51;;;;;;;6.50;1.90;;;;;;;14.29;62.47;99376.69;1735113;82;20998;-43
2022/07/21 02:54:19;;;;;;;4.75;2.00;;;;;;;14.27;62.52;99373.58;1735057;82;21133;-43
2022/07/21 02:56:46;;;;;;;2.75;1.60;;;;;;;14.26;62.75;99380.19;1734942;82;21629;-43
2022/07/21 02:59:13;;;;;;;5.70;1.70;;;;;;;14.26;62.80;99377.45;1735098;82;20926;-44
2022/07/21 03:01:40;;;;;;;2.27;1.60;;;;;;;14.24;62.79;99379.78;1734815;82;21377;-44
2022/07/21 03:04:08;;;;;;;3.52;2.00;;;;;;;14.26;62.86;99368.50;1735021;82;21546;-43
2022/07/21 03:06:35;;;;;;;5.90;1.80;;;;;;;14.32;62.83;99374.57;1734928;82;23202;-43
2022/07/21 03:09:03;;;;;;;2.87;1.90;;;;;;;14.39;62.77;99374.41;1736573;81;20961;-43
2022/07/21 03:11:30;;;;;;;3.77;1.50;;;;;;;14.43;62.79;99375.20;1743309;82;21904;-44
2022/07/21 03:13:56;;;;;;;2.87;1.80;;;;;;;14.47;62.71;99367.83;1743213;82;20966;-43
2022/07/21 03:16:24;;;;;;;2.27;1.55;;;;;;;14.50;62.60;99371.14;1743228;82;21005;-43
2022/07/21 03:18:52;;;;;;;10.28;1.62;;;;;;;14.51;62.73;99363.16;1743397;82;21554;-43
2022/07/21 03:21:19;;;;;;;4.50;1.75;;;;;;;14.57;62.93;99358.90;1743108;82;21441;-43
2022/07/21 03:23:47;;;;;;;3.77;1.60;;;;;;;14.64;62.85;99361.63;1743134;82;20886;-43
2022/07/21 03:26:15;;;;;;;5.10;1.60;;;;;;;14.70;62.77;99360.09;1743145;82;21488;-44
2022/07/21 03:28:43;;;;;;;2.27;1.50;;;;;;;14.76;62.78;99357.95;1743132;82;21045;-44
2022/07/21 03:31:11;;;;;;;3.37;1.60;;;;;;;14.81;62.54;99353.30;1743315;82;22052;-44
2022/07/21 03:33:37;;;;;;;6.03;1.57;;;;;;;14.85;62.58;99357.59;1743150;82;20929;-44
2022/07/21 03:36:07;;;;;;;3.25;1.70;;;;;;;14.89;62.39;99351.55;1743057;82;21029;-44
2022/07/21 03:38:35;;;;;;;5.35;1.67;;;;;;;14.94;62.50;99355.26;1743080;82;20898;-43
2022/07/21 03:41:03;;;;;;;3.47;1.60;;;;;;;14.98;62.52;99362.08;1743234;82;21098;-44
2022/07/21 03:43:30;;;;;;;4.92;1.60;;;;;;;15.02;62.80;99356.82;1743234;82;21140;-43
2022/07/21 03:45:57;;;;;;;2.67;1.72;;;;;;;15.09;62.67;99358.20;1743229;82;21484;-44
2022/07/21 03:48:24;;;;;;;5.15;1.60;;;;;;;15.13;62.66;99354.88;1743097;82;21021;-43
2022/07/21 03:50:51;;;;;;;2.35;1.35;;;;;;;15.16;62.78;99358.19;1743121;82;20941;-44
2022/07/21 03:53:17;;;;;;;2.45;1.50;;;;;;;15.18;62.96;99361.91;1743203;82;21035;-43
2022/07/21 03:55:45;;;;;;;2.60;1.50;;;;;;;15.19;62.96;99360.16;1742879;82;23198;-43
2022/07/21 03:58:14;;;;;;;2.30;1.50;;;;;;;15.26;63.05;99368.14;1743258;82;21053;-44
2022/07/21 04:00:43;;;;;;;3.20;1.60;;;;;;;15.32;63.10;99357.02;1743042;82;20930;-43
2022/07/21 04:03:10;;;;;;;3.27;1.70;;;;;;;15.40;63.08;99353.11;1743105;82;21307;-44
2022/07/21 04:05:38;;;;;;;5.05;1.60;;;;;;;15.50;62.79;99350.38;1743336;82;21488;-43
2022/07/21 04:08:06;;;;;;;4.90;1.82;;;;;;;15.59;62.63;99353.51;1743391;80;21104;-44
2022/07/21 04:10:35;;;;;;;3.08;1.80;;;;;;;15.69;62.51;99356.03;1781996;80;21012;-44
2022/07/21 04:13:04;;;;;;;3.45;1.67;;;;;;;15.77;62.48;99353.49;1782497;80;20929;-43
2022/07/21 04:15:32;;;;;;;2.27;1.45;;;;;;;15.83;61.96;99360.09;1782262;80;21032;-44
2022/07/21 04:18:00;;;;;;;4.72;1.90;;;;;;;15.90;61.89;99359.31;1782520;80;21622;-43
2022/07/21 04:20:27;;;;;;;5.85;2.12;;;;;;;15.97;62.18;99361.45;1782262;80;21253;-44
2022/07/21 04:22:55;;;;;;;4.35;1.67;;;;;;;16.06;61.71;99354.20;1782329;80;20968;-43
2022/07/21 04:25:22;;;;;;;4.35;1.40;;;;;;;16.17;61.95;99365.10;1782358;80;20976;-43
2022/07/21 04:27:50;;;;;;;3.37;1.72;;;;;;;16.23;60.91;99358.02;1782502;80;20937;-44
2022/07/21 04:30:20;;;;;;;4.45;1.47;;;;;;;16.28;60.40;99358.98;1782604;80;21017;-43
2022/07/21 04:32:46;;;;;;;3.02;1.70;;;;;;;16.31;60.68;99358.20;1782403;80;21223;-44
2022/07/21 04:35:15;;;;;;;2.08;1.70;;;;;;;16.36;60.64;99349.59;1782254;80;20934;-44
2022/07/21 04:37:43;;;;;;;2.30;1.50;;;;;;;16.42;60.65;99351.48;1782110;80;20949;-43
2022/07/21 04:40:11;;;;;;;2.58;1.60;;;;;;;16.48;60.19;99358.70;1782765;80;21260;-43
2022/07/21 04:42:39;;;;;;;4.10;1.85;;;;;;;16.49;59.97;99354.79;1782337;80;21560;-43
2022/07/21 04:45:08;;;;;;;5.85;1.70;;;;;;;16.45;60.11;99354.03;1782370;80;21574;-43
2022/07/21 04:47:54;;;;;;;2.90;1.70;;;;;;;16.44;60.00;99348.36;1782266;80;20921;-43
2022/07/21 04:50:23;;;;;;;3.05;1.50;;;;;;;16.45;60.19;99356.77;1782169;80;20966;-44
2022/07/21 04:52:51;;;;;;;3.10;1.50;;;;;;;16.48;60.29;99356.74;1782481;80;21084;-43
2022/07/21 04:55:19;;;;;;;2.65;1.50;;;;;;;16.55;60.46;99360.05;1782365;80;21531;-44
2022/07/21 04:57:49;;;;;;;4.10;1.80;;;;;;;16.61;60.34;99361.19;1782370;80;21469;-44
2022/07/21 05:00:22;;;;;;;3.60;1.60;;;;;;;16.70;59.79;99351.20;1782571;80;21004;-43
2022/07/21 05:02:50;;;;;;;3.58;1.67;;;;;;;16.77;60.05;99354.66;1782354;80;21009;-43
2022/07/21 05:05:18;;;;;;;2.80;1.60;;;;;;;16.85;59.74;99356.74;1782681;80;21334;-44
2022/07/21 05:07:45;;;;;;;1.82;1.42;;;;;;;16.94;59.90;99348.89;1782405;80;21526;-44
2022/07/21 05:10:14;;;;;;;4.50;1.70;;;;;;;17.04;59.38;99344.52;1782067;80;21145;-44
2022/07/21 05:12:42;;;;;;;3.80;1.87;;;;;;;17.14;59.15;99347.14;1782099;80;21075;-44
2022/07/21 05:15:13;;;;;;;3.90;1.55;;;;;;;17.22;59.14;99350.03;1782332;80;21508;-44
2022/07/21 05:17:42;;;;;;;2.72;1.52;;;;;;;17.31;58.96;99353.67;1782253;80;21026;-44
2022/07/21 05:20:11;;;;;;;2.65;1.45;;;;;;;17.41;59.09;99344.58;1782415;80;21004;-44
2022/07/21 05:22:39;;;;;;;3.75;1.27;;;;;;;17.54;59.00;99352.48;1782491;80;21523;-44
2022/07/21 05:25:07;;;;;;;3.83;1.40;;;;;;;17.65;58.05;99355.94;1782420;80;21504;-44
2022/07/21 05:27:34;;;;;;;4.62;1.30;;;;;;;17.72;57.41;99353.11;1782363;80;21570;-44
2022/07/21 05:30:01;;;;;;;2.72;1.40;;;;;;;17.78;57.47;99354.23;1782225;80;21587;-43
2022/07/21 05:32:29;;;;;;;5.42;1.25;;;;;;;17.82;57.08;99354.19;1782103;80;21060;-44
2022/07/21 05:34:56;;;;;;;2.75;1.22;;;;;;;17.87;57.19;99352.96;1782360;80;21543;-43
2022/07/21 05:37:23;;;;;;;2.95;1.27;;;;;;;17.91;57.32;99350.98;1782215;80;21529;-44
2022/07/21 05:39:50;;;;;;;2.92;1.25;;;;;;;17.96;57.62;99342.30;1782623;80;21550;-43
2022/07/21 05:42:17;;;;;;;2.75;1.20;;;;;;;18.06;58.16;99352.35;1781603;80;21052;-44
2022/07/21 05:44:44;;;;;;;3.60;1.27;;;;;;;18.19;57.75;99352.02;1782366;80;21092;-44
2022/07/21 05:47:13;;;;;;;2.10;1.10;;;;;;;18.31;57.01;99348.72;1782584;80;21021;-43
2022/07/21 05:49:40;;;;;;;5.20;1.35;;;;;;;18.40;56.43;99349.00;1782049;80;21496;-44
2022/07/21 05:52:08;;;;;;;2.60;1.30;;;;;;;18.50;56.49;99343.97;1782306;80;20941;-44
2022/07/21 05:54:36;;;;;;;1.90;1.30;;;;;;;18.58;55.75;99341.35;1782277;80;21531;-44
2022/07/21 05:57:03;;;;;;;4.35;1.27;;;;;;;18.64;55.51;99342.42;1782464;80;21057;-44
2022/07/21 05:59:31;;;;;;;3.52;1.45;;;;;;;18.70;56.00;99351.57;1782483;80;21073;-44
2022/07/21 06:01:57;;;;;;;1.67;1.20;;;;;;;18.77;55.32;99344.02;1782517;80;20941;-43
2022/07/21 06:04:24;;;;;;;6.72;1.22;;;;;;;18.82;55.02;99349.64;1782344;80;20965;-43
2022/07/21 06:06:52;;;;;;;3.67;1.40;;;;;;;18.86;54.84;99346.25;1782631;80;21577;-43
2022/07/21 06:09:20;;;;;;;5.00;1.20;;;;;;;18.94;55.34;99344.34;1782405;80;20994;-44
2022/07/21 06:11:48;;;;;;;1.70;0.95;;;;;;;19.05;55.40;99342.81;1782419;80;20957;-43
2022/07/21 06:14:15;;;;;;;2.02;0.90;;;;;;;19.18;54.87;99341.02;1782325;80;21518;-43
2022/07/21 06:16:42;;;;;;;1.98;1.20;;;;;;;19.28;54.30;99339.29;1782297;80;21025;-43
2022/07/21 06:19:10;;;;;;;1.67;1.00;;;;;;;19.37;54.67;99345.80;1782531;80;20965;-44
2022/07/21 06:21:37;;;;;;;1.55;1.00;;;;;;;19.48;53.04;99349.78;1782398;80;20985;-43
2022/07/21 06:24:06;;;;;;;2.08;1.02;;;;;;;19.55;53.44;99353.02;1782466;80;21211;-44
2022/07/21 06:26:33;;;;;;;2.17;1.10;;;;;;;19.62;53.35;99349.53;1782248;80;20972;-43
2022/07/21 06:28:59;;;;;;;2.85;1.07;;;;;;;19.68;52.87;99350.61;1782524;80;20946;-44
2022/07/21 06:31:28;;;;;;;1.60;1.00;;;;;;;19.73;52.47;99357.00;1782438;80;20972;-43
2022/07/21 06:33:55;;;;;;;1.15;0.72;;;;;;;19.81;51.98;99335.63;1782388;80;21053;-43
2022/07/21 06:36:23;;;;;;;6.70;1.07;;;;;;;19.91;51.50;99332.67;1782318;80;23165;-44
2022/07/21 06:38:49;;;;;;;1.98;0.93;;;;;;;20.01;51.23;99328.16;1782320;80;20977;-44
2022/07/21 06:41:17;;;;;;;2.17;1.10;;;;;;;20.09;51.79;99324.69;1781112;80;20933;-44
2022/07/21 06:43:44;;;;;;;1.30;0.80;;;;;;;20.15;51.73;99321.59;1782342;80;21012;-44
2022/07/21 06:46:12;;;;;;;3.25;0.93;;;;;;;20.24;51.32;99321.19;1782566;80;21068;-43
2022/07/21 06:48:40;;;;;;;4.47;1.25;;;;;;;20.31;50.94;99324.44;1782432;80;21139;-44
2022/07/21 06:51:07;;;;;;;3.37;0.85;;;;;;;20.41;50.50;99322.66;1782314;80;21538;-43
2022/07/21 06:53:35;;;;;;;3.22;0.82;;;;;;;20.52;50.60;99328.72;1781509;80;21770;-43
2022/07/21 06:56:04;;;;;;;2.77;1.10;;;;;;;20.63;50.58;99324.51;1751404;82;20965;-43
2022/07/21 06:58:32;;;;;;;1.60;0.80;;;;;;;20.75;49.92;99320.31;1777592;80;21049;-43
2022/07/21 07:00:59;;;;;;;2.25;1.10;;;;;;;20.78;49.19;99311.19;1782454;80;21244;-43
2022/07/21 07:03:26;;;;;;;2.65;0.82;;;;;;;20.82;48.56;99318.77;1782346;80;20933;-43
2022/07/21 07:05:54;;;;;;;3.08;0.95;;;;;;;20.86;48.99;99309.83;1782238;80;21558;-43
2022/07/21 07:08:21;;;;;;;1.32;0.80;;;;;;;20.93;49.06;99317.91;1782538;80;21550;-43
2022/07/21 07:10:48;;;;;;;1.42;0.80;;;;;;;20.99;48.47;99316.20;1782178;80;21021;-44
2022/07/21 07:13:17;;;;;;;2.40;0.98;;;;;;;21.05;48.14;99316.47;1782542;80;21174;-44
2022/07/21 07:15:45;;;;;;;1.55;0.80;;;;;;;21.10;47.88;99313.20;1782467;80;20992;-43
2022/07/21 07:18:14;;;;;;;2.17;0.80;;;;;;;21.14;47.08;99307.80;1782285;80;20964;-44
2022/07/21 07:20:41;;;;;;;2.90;0.85;;;;;;;21.16;46.54;99312.25;1782291;80;21068;-44
2022/07/21 07:23:07;;;;;;;2.62;1.27;;;;;;;21.16;46.66;99312.25;1782396;80;21005;-43
2022/07/21 07:25:34;;;;;;;4.08;0.90;;;;;;;21.21;47.34;99304.84;1782343;80;21245;-43
2022/07/21 07:28:03;;;;;;;2.20;0.80;;;;;;;21.29;47.99;99308.21;1781767;80;20968;-43
2022/07/21 07:30:30;;;;;;;3.98;0.80;;;;;;;21.38;47.65;99296.56;1782406;80;20945;-43
2022/07/21 07:32:57;;;;;;;3.47;0.88;;;;;;;21.54;47.88;99303.44;1782451;80;21037;-44
2022/07/21 07:35:24;;;;;;;2.40;0.90;;;;;;;21.72;46.68;99311.23;1782347;80;21052;-43
2022/07/21 07:37:51;;;;;;;3.50;0.85;;;;;;;21.83;45.47;99298.70;1782390;80;21243;-43
2022/07/21 07:40:20;;;;;;;4.92;0.90;;;;;;;21.92;45.10;99299.44;1782300;80;20973;-43
2022/07/21 07:42:47;;;;;;;1.52;0.72;;;;;;;21.98;44.29;99288.81;1782705;80;21031;-43
2022/07/21 07:45:14;;;;;;;3.65;0.80;;;;;;;22.03;43.94;99293.79;1782390;80;21021;-43
2022/07/21 07:47:43;;;;;;;2.37;0.80;;;;;;;22.06;44.07;99289.39;1782260;80;20960;-43
2022/07/21 07:50:11;;;;;;;6.72;0.90;;;;;;;22.06;43.74;99286.63;1782286;80;23193;-44
2022/07/21 07:52:39;;;;;;;2.05;0.82;;;;;;;22.07;43.32;99284.80;1782478;80;21063;-43
2022/07/21 07:55:10;;;;;;;3.47;0.62;;;;;;;22.09;43.59;99282.38;1782465;80;20886;-43
2022/07/21 07:57:39;;;;;;;3.22;0.80;;;;;;;22.15;43.28;99279.08;1782225;80;21596;-43
2022/07/21 08:00:11;;;;;;;1.62;0.62;;;;;;;22.21;42.74;99267.66;1782452;80;21088;-43
2022/07/21 08:02:40;;;;;;;2.50;0.75;;;;;;;22.25;43.53;99275.23;1782356;80;22058;-43
2022/07/21 08:05:08;;;;;;;1.10;0.47;;;;;;;22.36;42.68;99278.45;1782223;80;21036;-43
2022/07/21 08:07:37;;;;;;;1.00;0.70;;;;;;;22.50;42.27;99279.41;1782420;80;21495;-43
2022/07/21 08:10:07;;;;;;;2.33;1.05;;;;;;;22.61;42.10;99274.30;1782314;80;21625;-44
2022/07/21 08:12:35;;;;;;;2.58;0.75;;;;;;;22.73;41.44;99277.70;1782471;80;20997;-44
2022/07/21 08:15:03;;;;;;;2.62;0.75;;;;;;;22.86;40.91;99266.02;1782848;80;21484;-43
2022/07/21 08:17:30;;;;;;;4.20;0.82;;;;;;;22.95;40.85;99271.64;1782764;80;20956;-44
2022/07/21 08:19:57;;;;;;;4.80;0.78;;;;;;;23.01;40.67;99270.48;1782555;80;21484;-43
2022/07/21 08:22:24;;;;;;;2.65;0.80;;;;;;;23.06;41.03;99260.23;1782464;80;21008;-43
2022/07/21 08:24:52;;;;;;;2.60;0.93;;;;;;;23.17;40.86;99266.80;1777244;80;20997;-43
2022/07/21 08:27:19;;;;;;;3.35;0.95;;;;;;;23.26;40.15;99273.80;1782635;80;21298;-43
2022/07/21 08:29:46;;;;;;;2.50;0.78;;;;;;;23.34;40.64;99250.97;1782352;80;21506;-44
2022/07/21 08:32:13;;;;;;;3.72;0.80;;;;;;;23.46;40.79;99255.55;1782713;80;21017;-43
2022/07/21 08:34:40;;;;;;;2.37;0.70;;;;;;;23.56;40.59;99256.56;1782530;80;21087;-44
2022/07/21 08:37:07;;;;;;;1.90;0.72;;;;;;;23.61;40.52;99266.28;1782731;80;20985;-44
2022/07/21 08:39:34;;;;;;;1.85;0.70;;;;;;;23.60;40.38;99246.14;1782359;80;21896;-43
2022/07/21 08:42:02;;;;;;;1.15;0.72;;;;;;;23.63;41.13;99243.84;1782630;80;20933;-43
2022/07/21 08:44:29;;;;;;;2.05;0.85;;;;;;;23.74;40.39;99232.39;1782617;80;20937;-44
2022/07/21 08:46:56;;;;;;;3.20;0.78;;;;;;;23.86;40.23;99237.70;1782759;80;21024;-43
2022/07/21 08:49:23;;;;;;;4.22;0.93;;;;;;;23.97;40.54;99235.30;1782696;80;21087;-44
2022/07/21 08:51:51;;;;;;;3.87;0.80;;;;;;;24.07;40.36;99229.36;1782555;80;21240;-44
2022/07/21 08:54:21;;;;;;;3.80;0.57;;;;;;;24.16;39.90;99228.05;1782504;80;21008;-44
2022/07/21 08:56:49;;;;;;;2.00;0.80;;;;;;;24.19;38.51;99229.92;1782639;80;21016;-43
2022/07/21 08:59:15;;;;;;;1.77;0.62;;;;;;;24.21;39.41;99216.98;1782703;80;21668;-43
2022/07/21 09:01:42;;;;;;;1.92;1.00;;;;;;;24.27;38.88;99230.41;1782720;80;21534;-44
2022/07/21 09:04:31;;;;;;;1.90;0.60;;;;;;;24.34;38.18;99217.67;1782644;80;21238;-44
2022/07/21 09:07:07;;;;;;;3.98;0.75;;;;;;;24.39;38.67;99221.23;1782883;80;20994;-43
2022/07/21 09:09:35;;;;;;;2.80;0.65;;;;;;;24.45;38.64;99223.55;1782559;80;21493;-43
2022/07/21 09:12:04;;;;;;;1.85;0.80;;;;;;;24.55;38.83;99212.66;1782540;80;20965;-44
2022/07/21 09:14:32;;;;;;;1.17;0.80;;;;;;;24.67;38.09;99224.25;1752064;80;21085;-44
2022/07/21 09:17:02;;;;;;;2.20;0.90;;;;;;;24.77;38.49;99221.50;1783001;80;21102;-44
2022/07/21 09:19:38;;;;;;;2.00;1.05;;;;;;;24.82;38.79;99216.13;1782443;80;21012;-43
2022/07/21 09:22:07;;;;;;;1.37;0.72;;;;;;;24.77;38.51;99213.95;1782613;80;21052;-43
2022/07/21 09:24:39;;;;;;;3.80;0.88;;;;;;;24.73;38.71;99213.95;1782389;80;21276;-43
2022/07/21 09:27:21;;;;;;;2.77;1.10;;;;;;;24.72;38.91;99201.30;1782716;80;21096;-43
2022/07/21 09:29:55;;;;;;;2.42;0.82;;;;;;;24.73;39.10;99195.31;1782181;80;23201;-44
2022/07/21 09:32:34;;;;;;;1.30;0.70;;;;;;;24.73;38.93;99195.92;1782215;80;21032;-44
2022/07/21 09:35:09;;;;;;;;;;;;;;;24.78;38.99;99201.64;1785137;80;20957;-44
2022/07/21 09:37:37;;;;;;;1.75;0.80;;;;;;;24.88;38.91;99190.75;1777521;80;20129;-44
2022/07/21 09:40:13;;;;;;;1.80;0.70;;;;;;;24.88;39.24;99192.75;1782524;80;21064;-44
2022/07/21 09:42:43;;;;;;;3.80;0.98;;;;;;;25.04;39.33;99193.83;1782517;80;21757;-43
2022/07/21 09:45:13;;;;;;;1.55;0.80;;;;;;;25.12;38.79;99181.83;1782495;80;21021;-43
2022/07/21 09:47:40;;;;;;;;;;;;;;;25.22;39.46;99182.75;1785356;80;21000;-43
2022/07/21 09:50:10;;;;;;;4.05;0.88;;;;;;;25.35;38.85;99177.80;1782570;80;20147;-44
2022/07/21 09:52:40;;;;;;;3.02;0.90;;;;;;;25.34;38.38;99170.71;1782677;80;21327;-44
2022/07/21 09:55:13;;;;;;;2.77;0.83;;;;;;;25.38;38.01;99167.16;1782702;80;21108;-43
2022/07/21 09:57:41;;;;;;;2.30;0.98;;;;;;;25.45;39.16;99175.17;1782624;80;21527;-44
2022/07/21 10:00:16;;;;;;;2.98;1.00;;;;;;;25.50;37.83;99167.61;1782538;80;21012;-43
2022/07/21 10:02:44;;;;;;;1.37;0.85;;;;;;;25.55;38.59;99168.25;1782629;80;21040;-43
2022/07/21 10:05:15;;;;;;;2.72;0.80;;;;;;;25.65;38.94;99159.44;1782494;80;20982;-44
2022/07/21 10:07:45;;;;;;;4.97;0.90;;;;;;;25.81;38.56;99165.24;1782474;80;21238;-44
2022/07/21 10:10:12;;;;;;;1.67;0.90;;;;;;;25.93;37.49;99158.12;1782635;80;20953;-44
2022/07/21 10:12:40;;;;;;;2.67;1.10;;;;;;;25.98;37.43;99162.27;1782273;80;20976;-44
2022/07/21 10:15:09;;;;;;;2.17;0.80;;;;;;;26.01;37.60;99164.09;1782365;80;21601;-44
2022/07/21 10:17:36;;;;;;;4.57;1.13;;;;;;;26.03;37.77;99151.91;1782672;80;21036;-44
2022/07/21 10:20:18;;;;;;;1.90;1.00;;;;;;;26.09;37.76;99155.59;1751920;80;21237;-43
2022/07/21 10:23:41;;;;;;;3.15;0.90;;;;;;;26.22;38.17;99148.46;1782188;80;21517;-44
2022/07/21 10:26:09;;;;;;;2.22;1.00;;;;;;;26.32;36.96;99138.22;1782699;80;21035;-43
2022/07/21 10:28:37;;;;;;;2.27;1.00;;;;;;;26.44;37.52;99154.51;1782432;80;21040;-44
2022/07/21 10:31:22;;;;;;;3.10;1.10;;;;;;;26.60;36.87;99147.16;1782438;80;21048;-44
2022/07/21 10:33:53;;;;;;;2.02;0.90;;;;;;;26.74;37.27;99160.97;1754175;80;21259;-44
2022/07/21 10:36:35;;;;;;;3.22;1.12;;;;;;;26.85;35.78;99147.30;1782716;80;20925;-44
2022/07/21 10:39:16;;;;;;;2.35;1.00;;;;;;;26.84;35.72;99142.98;1782555;80;21008;-44
2022/07/21 10:41:46;;;;;;;1.52;0.98;;;;;;;26.81;35.28;99142.55;1782552;80;21519;-44
2022/07/21 10:44:31;;;;;;;2.58;1.42;;;;;;;26.77;36.33;99142.70;1782329;80;21027;-43
2022/07/21 10:47:20;;;;;;;4.15;1.32;;;;;;;26.86;35.97;99137.75;1766411;80;21162;-44
2022/07/21 10:49:57;;;;;;;1.32;1.05;;;;;;;26.96;35.51;99155.91;1744237;82;21513;-44
2022/07/21 10:52:42;;;;;;;3.42;1.57;;;;;;;27.06;35.92;99147.61;1782360;80;20925;-44
2022/07/21 10:55:28;;;;;;;2.87;1.10;;;;;;;27.27;35.34;99151.92;1782464;80;20998;-44
2022/07/21 10:58:25;;;;;;;1.98;1.10;;;;;;;27.49;35.38;99146.81;1782493;80;21029;-44
2022/07/21 11:00:56;;;;;;;2.25;1.30;;;;;;;27.68;35.15;99136.23;1782529;80;21225;-43
2022/07/21 11:03:34;;;;;;;3.25;1.00;;;;;;;27.93;34.88;99133.59;1782585;80;20925;-44
2022/07/21 11:06:25;;;;;;;3.60;1.25;;;;;;;28.19;34.00;99135.17;1782311;80;20980;-44
2022/07/21 11:09:07;;;;;;;4.25;1.32;;;;;;;28.42;33.96;99126.48;1782368;80;21008;-44
2022/07/21 11:12:00;;;;;;;1.30;1.20;;;;;;;28.64;33.23;99130.98;1782394;80;21581;-44
2022/07/21 11:14:41;;;;;;;3.67;1.20;;;;;;;28.69;32.93;99131.68;1782745;80;21301;-44
2022/07/21 11:17:12;;;;;;;2.95;1.40;;;;;;;28.61;33.64;99134.73;1782672;80;21543;-44
2022/07/21 11:19:52;;;;;;;4.28;1.65;;;;;;;28.59;33.42;99128.89;1782671;80;21028;-44
2022/07/21 11:22:28;;;;;;;2.42;1.40;;;;;;;28.63;33.39;99125.88;1782664;80;20957;-44
2022/07/21 11:25:03;;;;;;;2.70;1.42;;;;;;;28.79;33.14;99120.55;1782900;80;21025;-43
2022/07/21 11:27:34;;;;;;;3.80;1.40;;;;;;;29.05;33.20;99117.04;1782651;80;21281;-44
2022/07/21 11:30:06;;;;;;;2.10;1.32;;;;;;;29.23;32.46;99130.05;1782536;80;20941;-44
2022/07/21 11:32:34;;;;;;;3.00;1.20;;;;;;;29.24;32.22;99123.84;1782946;80;20957;-44
2022/07/21 11:35:04;;;;;;;2.37;1.22;;;;;;;29.08;32.09;99120.23;1782778;80;21060;-44
2022/07/21 11:37:39;;;;;;;2.10;1.40;;;;;;;28.99;32.92;99124.58;1782774;80;21096;-44
2022/07/21 11:40:14;;;;;;;2.08;1.60;;;;;;;28.98;32.68;99124.43;1782854;80;22002;-44
2022/07/21 11:42:43;;;;;;;5.28;1.55;;;;;;;28.91;32.41;99118.02;1782762;80;20902;-44
2022/07/21 11:45:10;;;;;;;1.67;1.40;;;;;;;28.81;32.83;99115.23;1782656;80;21668;-44
2022/07/21 11:47:37;;;;;;;2.45;1.40;;;;;;;28.73;32.64;99117.55;1783036;80;21032;-44